createdAt,value
2022-12-17T00:02:43.267Z,22.40
2022-12-17T00:05:28.491Z,24.38
2022-12-17T00:08:17.436Z,23.02
2022-12-17T00:11:03.953Z,26.95
2022-12-17T00:13:49.454Z,24.17
2022-12-17T00:16:35.088Z,23.02
2022-12-17T00:19:22.200Z,27.80
2022-12-17T00:22:06.623Z,27.70
2022-12-17T00:24:51.871Z,25.23
2022-12-17T00:27:37.278Z,29.73
2022-12-17T00:30:24.651Z,30.42
2022-12-17T00:33:10.063Z,28.67
2022-12-17T00:35:56.683Z,31.35
2022-12-17T00:38:41.979Z,28.75
2022-12-17T00:41:27.617Z,31.13
2022-12-17T00:44:13.164Z,25.27
2022-12-17T00:46:58.670Z,28.13
2022-12-17T00:49:44.130Z,28.67
2022-12-17T00:52:30.791Z,25.80
2022-12-17T00:55:16.121Z,25.27
2022-12-17T00:58:01.427Z,27.10
2022-12-17T01:00:46.845Z,28.65
2022-12-17T01:03:32.424Z,24.80
2022-12-17T01:06:20.772Z,27.67
2022-12-17T01:09:07.495Z,27.25
2022-12-17T01:11:56.395Z,29.90
2022-12-17T01:14:42.984Z,27.25
2022-12-17T01:17:28.478Z,30.27
2022-12-17T01:20:13.996Z,33.10
2022-12-17T01:22:59.557Z,27.52
2022-12-17T01:25:46.455Z,30.00
2022-12-17T01:28:32.068Z,25.25
2022-12-17T01:31:17.473Z,30.25
2022-12-17T01:34:03.031Z,31.85
2022-12-17T01:36:48.326Z,28.33
2022-12-17T01:39:33.414Z,25.92
2022-12-17T01:42:20.455Z,32.28
2022-12-17T01:45:08.843Z,24.50
2022-12-17T01:47:58.330Z,30.95
2022-12-17T01:50:46.932Z,27.85
2022-12-17T01:53:35.787Z,33.35
2022-12-17T01:56:23.291Z,30.17
2022-12-17T01:59:10.714Z,26.05
2022-12-17T02:01:56.388Z,29.15
2022-12-17T02:04:42.770Z,28.85
2022-12-17T02:07:46.439Z,25.98
2022-12-17T02:10:42.284Z,26.33
2022-12-17T02:13:34.364Z,28.00
2022-12-17T02:16:27.581Z,28.42
2022-12-17T02:19:17.887Z,26.55
2022-12-17T02:22:09.544Z,30.65
2022-12-17T02:25:02.467Z,24.70
2022-12-17T02:30:35.251Z,25.88
2022-12-17T02:33:21.282Z,26.92
2022-12-17T02:36:11.923Z,26.88
2022-12-17T02:38:57.152Z,24.67
2022-12-17T02:41:46.209Z,27.92
2022-12-17T02:44:35.579Z,28.92
2022-12-17T02:47:24.819Z,24.70
2022-12-17T02:50:10.931Z,26.55
2022-12-17T02:53:00.707Z,28.15
2022-12-17T02:55:46.261Z,25.83
2022-12-17T02:58:31.577Z,26.35
2022-12-17T03:01:18.703Z,29.00
2022-12-17T03:04:04.094Z,24.60
2022-12-17T03:06:49.958Z,25.33
2022-12-17T03:09:35.494Z,25.08
2022-12-17T03:12:20.696Z,33.58
2022-12-17T03:15:06.295Z,26.83
2022-12-17T03:17:53.014Z,27.42
2022-12-17T03:20:38.433Z,27.40
2022-12-17T03:23:34.265Z,27.52
2022-12-17T03:26:21.405Z,25.70
2022-12-17T03:29:06.939Z,24.92
2022-12-17T03:31:52.524Z,28.92
2022-12-17T03:34:39.083Z,27.35
2022-12-17T03:37:24.826Z,24.98
2022-12-17T03:40:10.419Z,27.40
2022-12-17T03:42:55.877Z,25.00
2022-12-17T03:45:41.503Z,27.17
2022-12-17T03:48:29.349Z,24.92
2022-12-17T03:51:16.635Z,27.75
2022-12-17T03:54:02.422Z,25.92
2022-12-17T03:56:47.842Z,27.55
2022-12-17T03:59:33.263Z,31.40
2022-12-17T04:02:19.272Z,33.05
2022-12-17T04:05:04.736Z,25.40
2022-12-17T04:07:52.169Z,25.80
2022-12-17T04:10:37.543Z,27.95
2022-12-17T04:13:23.423Z,27.23
2022-12-17T04:16:08.823Z,26.35
2022-12-17T04:18:53.995Z,24.30
2022-12-17T04:21:39.716Z,27.55
2022-12-17T04:24:26.692Z,29.25
2022-12-17T04:27:12.027Z,23.60
2022-12-17T04:29:57.197Z,27.27
2022-12-17T04:32:42.340Z,26.27
2022-12-17T04:35:27.707Z,26.25
2022-12-17T04:38:12.955Z,26.63
2022-12-17T04:40:59.485Z,26.48
2022-12-17T04:43:44.913Z,27.75
2022-12-17T04:46:30.679Z,23.83
2022-12-17T04:49:16.454Z,28.45
2022-12-17T04:52:01.864Z,26.83
2022-12-17T04:54:47.062Z,25.60
2022-12-17T04:57:34.015Z,27.85
2022-12-17T05:00:19.438Z,26.50
2022-12-17T05:03:04.972Z,25.77
2022-12-17T05:05:50.715Z,26.35
2022-12-17T05:08:41.227Z,25.67
2022-12-17T05:11:26.784Z,30.70
2022-12-17T05:14:13.503Z,29.83
2022-12-17T05:16:59.097Z,27.65
2022-12-17T05:19:44.433Z,26.55
2022-12-17T05:22:29.675Z,26.98
2022-12-17T05:25:15.181Z,26.92
2022-12-17T05:28:00.868Z,29.25
2022-12-17T05:30:47.890Z,29.67
2022-12-17T05:33:33.296Z,27.77
2022-12-17T05:36:19.296Z,29.75
2022-12-17T05:39:06.136Z,26.25
2022-12-17T05:41:51.560Z,30.70
2022-12-17T05:44:37.037Z,25.80
2022-12-17T05:47:24.403Z,25.20
2022-12-17T05:50:09.997Z,27.88
2022-12-17T05:52:55.282Z,24.15
2022-12-17T05:55:40.606Z,29.92
2022-12-17T05:58:28.603Z,27.35
2022-12-17T06:01:14.953Z,26.42
2022-12-17T06:04:02.201Z,24.55
2022-12-17T06:06:47.941Z,25.05
2022-12-17T06:09:33.643Z,25.58
2022-12-17T06:12:24.508Z,22.85
2022-12-17T06:15:24.635Z,24.13
2022-12-17T06:18:16.948Z,22.90
2022-12-17T06:21:04.326Z,25.98
2022-12-17T06:23:50.068Z,27.40
2022-12-17T06:26:35.822Z,25.27
2022-12-17T06:29:23.310Z,24.27
2022-12-17T06:32:08.875Z,24.95
2022-12-17T06:34:56.584Z,25.83
2022-12-17T06:37:43.211Z,24.58
2022-12-17T06:40:30.060Z,26.52
2022-12-17T06:43:15.871Z,24.33
2022-12-17T06:46:01.462Z,22.55
2022-12-17T06:48:47.152Z,25.90
2022-12-17T06:51:32.481Z,24.60
2022-12-17T06:54:19.278Z,28.17
2022-12-17T06:57:04.579Z,27.25
2022-12-17T06:59:50.130Z,27.45
2022-12-17T07:02:35.650Z,24.23
2022-12-17T07:05:21.346Z,27.15
2022-12-17T07:08:06.548Z,24.15
2022-12-17T07:10:53.229Z,27.50
2022-12-17T07:13:39.970Z,23.70
2022-12-17T07:16:25.995Z,24.23
2022-12-17T07:19:13.844Z,27.20
2022-12-17T07:21:59.298Z,24.73
2022-12-17T07:24:44.848Z,28.92
2022-12-17T07:27:31.626Z,27.67
2022-12-17T07:30:17.112Z,25.17
2022-12-17T07:33:02.658Z,29.65
2022-12-17T07:35:47.905Z,30.50
2022-12-17T07:38:33.077Z,26.60
2022-12-17T07:41:18.783Z,29.05
2022-12-17T07:44:05.371Z,28.67
2022-12-17T07:46:50.735Z,31.33
2022-12-17T07:49:36.223Z,30.92
2022-12-17T07:52:21.545Z,26.15
2022-12-17T07:55:06.902Z,27.13
2022-12-17T07:57:52.137Z,29.17
2022-12-17T08:00:43.422Z,29.55
2022-12-17T08:03:45.850Z,27.25
2022-12-17T08:06:31.785Z,29.98
2022-12-17T08:09:17.197Z,28.33
2022-12-17T08:12:02.583Z,29.67
2022-12-17T08:14:47.851Z,28.63
2022-12-17T08:17:34.851Z,29.77
2022-12-17T08:20:34.647Z,33.10
2022-12-17T08:23:21.077Z,31.20
2022-12-17T08:26:06.816Z,43.63
2022-12-17T08:28:52.313Z,36.35
2022-12-17T08:31:38.238Z,34.63
2022-12-17T08:34:25.107Z,35.28
2022-12-17T08:37:10.851Z,31.42
2022-12-17T08:39:56.835Z,28.33
2022-12-17T08:42:42.386Z,32.22
2022-12-17T08:45:28.447Z,35.08
2022-12-17T08:48:21.694Z,36.97
2022-12-17T08:51:08.705Z,34.92
2022-12-17T08:53:54.148Z,33.05
2022-12-17T08:56:39.758Z,32.38
2022-12-17T08:59:25.057Z,41.10
2022-12-17T09:02:10.531Z,33.38
2022-12-17T09:04:56.445Z,32.80
2022-12-17T09:07:45.333Z,30.20
2022-12-17T09:10:30.937Z,36.97
2022-12-17T09:13:20.670Z,39.72
2022-12-17T09:16:10.962Z,31.00
2022-12-17T09:18:56.340Z,37.38
2022-12-17T09:21:41.959Z,32.63
2022-12-17T09:24:29.752Z,34.25
2022-12-17T09:27:15.248Z,29.27
2022-12-17T09:30:00.774Z,29.67
2022-12-17T09:32:45.992Z,38.17
2022-12-17T09:35:30.395Z,30.95
2022-12-17T09:38:16.349Z,27.70
2022-12-17T09:41:09.197Z,24.52
2022-12-17T09:44:03.474Z,30.25
2022-12-17T09:46:56.361Z,34.20
2022-12-17T09:52:38.109Z,32.03
2022-12-17T09:55:36.180Z,31.33
2022-12-17T09:58:23.691Z,35.80
2022-12-17T10:01:35.353Z,30.92
2022-12-17T10:04:23.963Z,27.45
2022-12-17T10:07:09.384Z,27.55
2022-12-17T10:09:55.452Z,29.85
2022-12-17T10:12:42.563Z,22.98
2022-12-17T10:15:33.133Z,25.73
2022-12-17T10:18:30.331Z,24.45
2022-12-17T10:21:17.740Z,25.77
2022-12-17T10:24:03.146Z,28.40
2022-12-17T10:26:50.641Z,25.38
2022-12-17T10:29:40.175Z,26.75
2022-12-17T10:32:38.712Z,24.63
2022-12-17T10:35:27.108Z,27.85
2022-12-17T10:38:12.449Z,27.38
2022-12-17T10:41:03.611Z,23.92
2022-12-17T10:43:51.196Z,21.08
2022-12-17T10:46:44.796Z,20.90
2022-12-17T10:49:34.718Z,21.45
2022-12-17T10:52:22.920Z,23.08
2022-12-17T10:55:20.651Z,21.73
2022-12-17T10:58:08.651Z,24.17
2022-12-17T11:00:57.787Z,23.48
2022-12-17T11:03:52.626Z,26.30
2022-12-17T11:06:45.736Z,28.30
2022-12-17T11:09:42.959Z,27.23
2022-12-17T11:12:31.270Z,27.50
2022-12-17T11:15:22.744Z,24.48
2022-12-17T11:18:11.571Z,24.88
2022-12-17T11:21:05.871Z,27.95
2022-12-17T11:23:54.438Z,26.25
2022-12-17T11:26:40.220Z,25.30
2022-12-17T11:29:31.093Z,26.80
2022-12-17T11:32:40.460Z,34.00
2022-12-17T11:35:32.719Z,35.58
2022-12-17T11:38:27.437Z,39.67
2022-12-17T11:41:18.799Z,33.45
2022-12-17T11:44:12.786Z,35.05
2022-12-17T11:47:03.612Z,34.20
2022-12-17T11:49:59.390Z,42.97
2022-12-17T11:52:51.919Z,36.20
2022-12-17T11:55:44.448Z,25.38
2022-12-17T11:58:39.095Z,43.65
2022-12-17T12:01:32.883Z,35.58
2022-12-17T12:04:30.851Z,34.97
2022-12-17T12:07:27.556Z,35.63
2022-12-17T12:10:19.002Z,31.67
2022-12-17T12:13:23.872Z,34.60
2022-12-17T12:16:21.971Z,39.05
2022-12-17T12:19:15.613Z,37.22
2022-12-17T12:22:09.587Z,34.63
2022-12-17T12:25:16.520Z,35.25
2022-12-17T12:28:13.231Z,32.15
2022-12-17T12:31:01.510Z,39.72
2022-12-17T12:33:56.175Z,40.70
2022-12-17T12:36:45.139Z,37.65
2022-12-17T12:39:36.301Z,37.83
2022-12-17T12:42:42.504Z,43.33
2022-12-17T12:45:49.876Z,35.55
2022-12-17T12:48:45.260Z,40.05
2022-12-17T12:51:36.847Z,43.03
2022-12-17T12:54:44.205Z,34.05
2022-12-17T12:58:02.733Z,38.95
2022-12-17T13:00:55.844Z,38.95
2022-12-17T13:03:47.262Z,43.65
2022-12-17T13:06:41.276Z,37.70
2022-12-17T13:09:22.675Z,39.95
2022-12-17T13:11:55.981Z,36.83
2022-12-17T13:14:29.290Z,37.70
2022-12-17T13:17:03.405Z,40.95
2022-12-17T13:19:38.172Z,34.15
2022-12-17T13:22:28.600Z,28.27
2022-12-17T13:25:10.291Z,33.25
2022-12-17T13:27:40.965Z,32.08
2022-12-17T13:30:39.552Z,28.88
2022-12-17T13:33:26.581Z,33.55
2022-12-17T13:36:05.574Z,31.58
2022-12-17T13:38:46.585Z,26.85
2022-12-17T13:41:16.576Z,27.20
2022-12-17T13:43:46.656Z,29.20
2022-12-17T13:46:23.534Z,26.50
2022-12-17T13:48:57.531Z,32.50
2022-12-17T13:51:26.454Z,38.90
2022-12-17T13:53:58.624Z,37.67
2022-12-17T13:56:29.067Z,35.70
2022-12-17T13:59:03.145Z,36.65
2022-12-17T14:01:44.652Z,32.58
2022-12-17T14:04:21.970Z,31.95
2022-12-17T14:06:50.984Z,33.63
2022-12-17T14:09:23.574Z,32.22
2022-12-17T14:12:09.383Z,34.22
2022-12-17T14:14:42.027Z,36.20
2022-12-17T14:17:18.439Z,36.88
2022-12-17T14:19:46.584Z,34.90
2022-12-17T14:22:20.054Z,38.88
2022-12-17T14:24:49.467Z,33.67
2022-12-17T14:27:25.866Z,34.25
2022-12-17T14:29:54.155Z,41.38
2022-12-17T14:32:27.291Z,42.45
2022-12-17T14:35:00.410Z,85.03
2022-12-17T14:37:29.584Z,66.93
2022-12-17T14:40:03.987Z,36.08
2022-12-17T14:42:36.490Z,35.38
2022-12-17T14:47:36.434Z,40.40
2022-12-17T14:50:25.053Z,41.95
2022-12-17T14:52:54.679Z,40.05
2022-12-17T14:55:30.613Z,55.88
2022-12-17T14:58:19.908Z,44.38
2022-12-17T15:00:52.233Z,37.45
2022-12-17T15:03:23.858Z,35.92
2022-12-17T15:05:55.133Z,45.75
2022-12-17T15:08:23.347Z,32.65
2022-12-17T15:10:52.853Z,38.30
2022-12-17T15:13:20.835Z,34.83
2022-12-17T15:15:48.827Z,35.88
2022-12-17T15:18:16.845Z,30.88
2022-12-17T15:20:45.060Z,33.60
2022-12-17T15:23:17.724Z,29.20
2022-12-17T15:25:47.061Z,26.60
2022-12-17T15:28:17.481Z,29.42
2022-12-17T15:30:45.839Z,27.88
2022-12-17T15:33:14.413Z,32.35
2022-12-17T15:35:42.970Z,26.70
2022-12-17T15:38:12.849Z,33.53
2022-12-17T15:40:41.088Z,29.73
2022-12-17T15:43:12.887Z,30.55
2022-12-17T15:45:43.993Z,27.10
2022-12-17T15:48:13.023Z,30.55
2022-12-17T15:50:41.608Z,29.52
2022-12-17T15:53:10.009Z,32.45
2022-12-17T15:55:38.307Z,38.30
2022-12-17T15:58:07.120Z,33.47
2022-12-17T16:00:36.868Z,27.63
2022-12-17T16:03:06.287Z,28.52
2022-12-17T16:05:34.679Z,33.10
2022-12-17T16:08:03.879Z,26.38
2022-12-17T16:10:32.087Z,31.23
2022-12-17T16:12:59.960Z,33.33
2022-12-17T16:15:28.220Z,28.70
2022-12-17T16:17:56.468Z,31.02
2022-12-17T16:20:25.886Z,28.65
2022-12-17T16:22:53.997Z,30.02
2022-12-17T16:25:21.963Z,30.27
2022-12-17T16:27:49.913Z,30.15
2022-12-17T16:30:17.933Z,33.33
2022-12-17T16:32:45.986Z,35.20
2022-12-17T16:35:14.203Z,32.28
2022-12-17T16:37:43.660Z,32.15
2022-12-17T16:40:12.635Z,33.10
2022-12-17T16:42:40.680Z,29.35
2022-12-17T16:45:09.714Z,33.45
2022-12-17T16:47:37.713Z,30.10
2022-12-17T16:50:06.687Z,34.65
2022-12-17T16:52:35.377Z,32.53
2022-12-17T16:55:05.099Z,36.20
2022-12-17T16:57:33.011Z,39.80
2022-12-17T17:00:00.912Z,34.50
2022-12-17T17:02:29.109Z,35.08
2022-12-17T17:04:57.227Z,33.67
2022-12-17T17:07:25.245Z,32.75
2022-12-17T17:09:53.172Z,27.63
2022-12-17T17:12:23.401Z,27.20
2022-12-17T17:14:51.481Z,32.10
2022-12-17T17:17:19.406Z,34.00
2022-12-17T17:20:08.036Z,30.13
2022-12-17T17:22:36.148Z,31.85
2022-12-17T17:25:05.008Z,30.27
2022-12-17T17:27:34.321Z,31.70
2022-12-17T17:30:03.863Z,34.13
2022-12-17T17:32:32.354Z,33.83
2022-12-17T17:35:00.458Z,33.47
2022-12-17T17:37:29.021Z,40.42
2022-12-17T17:39:57.089Z,34.53
2022-12-17T17:42:25.078Z,31.85
2022-12-17T17:44:54.485Z,30.42
2022-12-17T17:47:22.463Z,31.45
2022-12-17T17:49:50.380Z,32.67
2022-12-17T17:52:18.619Z,26.88
2022-12-17T17:54:48.580Z,28.73
2022-12-17T17:57:16.498Z,30.77
2022-12-17T17:59:44.397Z,27.42
2022-12-17T18:02:14.078Z,25.70
2022-12-17T18:04:42.241Z,26.73
2022-12-17T18:07:26.966Z,29.42
2022-12-17T18:09:56.042Z,23.55
2022-12-17T18:12:41.652Z,25.85
2022-12-17T18:15:15.225Z,26.52
2022-12-17T18:17:46.625Z,26.65
2022-12-17T18:20:15.174Z,30.55
2022-12-17T18:22:45.937Z,31.85
2022-12-17T18:25:14.589Z,32.80
2022-12-17T18:27:42.476Z,26.63
2022-12-17T18:30:11.322Z,25.55
2022-12-17T18:32:39.174Z,29.10
2022-12-17T18:35:09.941Z,22.98
2022-12-17T18:37:38.298Z,24.35
2022-12-17T18:40:07.340Z,21.33
2022-12-17T18:42:52.937Z,27.27
2022-12-17T18:45:20.893Z,21.75
2022-12-17T18:47:49.075Z,22.25
2022-12-17T18:50:18.720Z,24.75
2022-12-17T18:52:46.751Z,25.00
2022-12-17T18:55:14.729Z,23.05
2022-12-17T18:57:42.701Z,22.02
2022-12-17T19:00:11.897Z,25.02
2022-12-17T19:02:39.923Z,28.80
2022-12-17T19:05:08.461Z,26.55
2022-12-17T19:07:37.919Z,22.80
2022-12-17T19:10:06.776Z,27.25
2022-12-17T19:12:34.756Z,23.00
2022-12-17T19:15:02.894Z,27.77
2022-12-17T19:17:30.766Z,23.27
2022-12-17T19:19:58.791Z,27.25
2022-12-17T19:22:26.762Z,22.10
2022-12-17T19:24:56.271Z,24.00
2022-12-17T19:27:24.540Z,24.80
2022-12-17T19:29:52.833Z,24.73
2022-12-17T19:32:20.742Z,24.70
2022-12-17T19:34:48.723Z,23.05
2022-12-17T19:37:17.075Z,24.85
2022-12-17T19:39:45.169Z,26.08
2022-12-17T19:42:24.956Z,26.23
2022-12-17T19:44:54.969Z,28.10
2022-12-17T19:47:23.841Z,22.60
2022-12-17T19:49:51.822Z,24.92
2022-12-17T19:52:19.775Z,25.75
2022-12-17T19:54:47.736Z,27.05
2022-12-17T19:57:17.073Z,22.67
2022-12-17T19:59:45.158Z,24.90
2022-12-17T20:02:15.745Z,24.70
2022-12-17T20:04:43.941Z,23.73
2022-12-17T20:07:11.979Z,23.52
2022-12-17T20:09:40.364Z,22.77
2022-12-17T20:12:08.605Z,19.40
2022-12-17T20:14:38.300Z,22.63
2022-12-17T20:17:06.933Z,50.47
2022-12-17T20:19:35.324Z,38.88
2022-12-17T20:22:05.245Z,28.92
2022-12-17T20:24:33.692Z,25.45
2022-12-17T20:27:02.247Z,26.25
2022-12-17T20:29:30.928Z,25.70
2022-12-17T20:32:08.503Z,25.35
2022-12-17T20:34:36.535Z,22.65
2022-12-17T20:37:04.673Z,26.40
2022-12-17T20:39:32.862Z,25.60
2022-12-17T20:42:00.922Z,26.80
2022-12-17T20:44:28.996Z,24.67
2022-12-17T20:46:56.912Z,35.25
2022-12-17T20:49:26.264Z,30.45
2022-12-17T20:51:54.196Z,26.77
2022-12-17T20:54:22.329Z,26.02
2022-12-17T20:56:50.293Z,25.45
2022-12-17T20:59:20.271Z,24.10
2022-12-17T21:01:55.589Z,22.98
2022-12-17T21:04:25.994Z,22.77
2022-12-17T21:06:54.358Z,21.60
2022-12-17T21:09:25.351Z,27.92
2022-12-17T21:11:53.785Z,25.20
2022-12-17T21:14:21.705Z,26.77
2022-12-17T21:16:49.972Z,28.48
2022-12-17T21:19:20.180Z,26.10
2022-12-17T21:21:49.788Z,27.48
2022-12-17T21:24:18.180Z,27.73
2022-12-17T21:26:47.749Z,27.92
2022-12-17T21:29:16.622Z,27.33
2022-12-17T21:31:47.226Z,27.45
2022-12-17T21:34:18.025Z,28.63
2022-12-17T21:37:09.640Z,26.33
2022-12-17T21:39:59.904Z,28.33
2022-12-17T21:43:05.161Z,29.48
2022-12-17T21:45:37.857Z,28.40
2022-12-17T21:48:07.620Z,34.45
2022-12-17T21:50:43.058Z,28.27
2022-12-17T21:53:13.895Z,30.27
2022-12-17T21:55:42.045Z,31.45
2022-12-17T21:58:11.315Z,32.10
2022-12-17T22:00:39.282Z,31.83
2022-12-17T22:03:07.356Z,31.25
2022-12-17T22:05:37.231Z,30.55
2022-12-17T22:08:05.565Z,30.35
2022-12-17T22:10:50.531Z,33.50
2022-12-17T22:13:36.938Z,33.30
2022-12-17T22:16:07.035Z,31.90
2022-12-17T22:18:35.108Z,37.80
2022-12-17T22:21:03.468Z,34.40
2022-12-17T22:23:31.426Z,34.05
2022-12-17T22:26:01.133Z,32.60
2022-12-17T22:28:29.041Z,33.83
2022-12-17T22:31:14.627Z,31.80
2022-12-17T22:34:24.696Z,32.35
2022-12-17T22:38:43.142Z,33.22
2022-12-17T22:42:41.964Z,36.38
2022-12-17T22:44:35.707Z,38.65
2022-12-17T22:45:27.118Z,37.50
2022-12-17T22:47:57.664Z,35.75
2022-12-17T22:50:34.749Z,35.92
2022-12-17T22:53:10.720Z,34.90
2022-12-17T22:55:38.950Z,30.20
2022-12-17T22:58:08.636Z,37.40
2022-12-17T23:00:37.485Z,36.78
2022-12-17T23:03:06.001Z,36.75
2022-12-17T23:05:34.491Z,38.30
2022-12-17T23:08:02.599Z,40.80
2022-12-17T23:10:30.586Z,38.75
2022-12-17T23:12:58.767Z,41.70
2022-12-17T23:15:30.926Z,37.65
2022-12-17T23:18:01.289Z,38.72
2022-12-17T23:20:32.095Z,37.63
2022-12-17T23:23:00.819Z,36.38
2022-12-17T23:25:29.946Z,40.90
2022-12-17T23:27:57.898Z,39.15
2022-12-17T23:30:25.918Z,36.00
2022-12-17T23:32:55.432Z,39.47
2022-12-17T23:35:23.429Z,39.67
2022-12-17T23:37:51.399Z,35.65
2022-12-17T23:40:19.454Z,39.75
2022-12-17T23:42:47.456Z,39.13
2022-12-17T23:45:15.584Z,37.30
2022-12-17T23:47:43.547Z,34.03
2022-12-17T23:50:13.111Z,37.20
2022-12-17T23:52:41.188Z,36.45
2022-12-17T23:55:11.425Z,38.13
2022-12-17T23:57:39.400Z,34.05
